Time;durP1;ratioP1;P1;durP2;ratioP2;P2;SDS_P1;SDS_P2;PMS_P1;PMS_P2;Temp;Humidity;BMP_temperature;BMP_pressure;BME280_temperature;BME280_humidity;BME280_pressure;Samples;Min_cycle;Max_cycle;Signal;HPM_P1;HPM_P2
2022/01/29 00:01:07;;;;;;;5.27;3.63;;;;;;;2.39;100.00;97934.63;5093517;27;105528;-60
2022/01/29 00:03:36;;;;;;;5.77;4.07;;;;;;;2.42;100.00;97933.47;5092708;27;105222;-60
2022/01/29 00:06:04;;;;;;;7.37;4.57;;;;;;;2.44;100.00;97927.09;5112247;27;101975;-60
2022/01/29 00:08:31;;;;;;;4.80;4.00;;;;;;;2.37;100.00;97930.50;5093705;27;105810;-60
2022/01/29 00:11:06;;;;;;;6.00;4.47;;;;;;;2.35;100.00;97916.75;5096740;27;101689;-60
2022/01/29 00:13:33;;;;;;;5.10;4.00;;;;;;;2.34;100.00;97917.69;5097068;27;104993;-60
2022/01/29 00:16:01;;;;;;;5.47;3.80;;;;;;;2.36;100.00;97908.69;5096495;27;103847;-60
2022/01/29 00:18:52;;;;;;;5.27;4.03;;;;;;;2.31;100.00;97895.25;5097099;27;101833;-60
2022/01/29 00:21:20;;;;;;;7.37;4.50;;;;;;;2.31;100.00;97890.00;5096939;27;104827;-60
2022/01/29 00:23:48;;;;;;;6.87;4.50;;;;;;;2.31;100.00;97889.16;5096139;27;105085;-60
2022/01/29 00:26:20;;;;;;;6.97;4.80;;;;;;;2.25;100.00;97884.56;5096991;27;101961;-60
2022/01/29 00:28:57;;;;;;;8.27;5.30;;;;;;;2.30;100.00;97874.41;5096838;27;103613;-60
2022/01/29 00:31:26;;;;;;;6.60;4.53;;;;;;;2.24;100.00;97864.56;5099931;27;105287;-60
2022/01/29 00:33:53;;;;;;;8.17;4.47;;;;;;;2.23;100.00;97860.28;5097088;27;105078;-60
2022/01/29 00:36:20;;;;;;;6.37;4.93;;;;;;;2.30;100.00;97863.91;5095893;27;103958;-60
2022/01/29 00:38:53;;;;;;;5.57;4.10;;;;;;;2.28;100.00;97863.22;5096733;27;101861;-59
2022/01/29 00:41:20;;;;;;;5.13;4.07;;;;;;;2.28;100.00;97857.97;5097011;27;105195;-60
2022/01/29 00:43:47;;;;;;;4.13;3.60;;;;;;;2.32;100.00;97856.69;5095792;27;103888;-60
2022/01/29 00:46:14;;;;;;;4.67;3.57;;;;;;;2.34;100.00;97852.06;5096571;27;101942;-60
2022/01/29 00:48:43;;;;;;;5.77;3.80;;;;;;;2.38;100.00;97848.16;5096525;27;105138;-60
2022/01/29 00:51:10;;;;;;;4.07;3.67;;;;;;;2.41;100.00;97832.09;5095900;27;105044;-60
2022/01/29 00:53:37;;;;;;;4.20;3.80;;;;;;;2.43;100.00;97828.31;5100056;27;101859;-60
2022/01/29 00:56:06;;;;;;;4.23;3.57;;;;;;;2.35;100.00;97823.03;5095572;27;105682;-60
2022/01/29 00:59:04;;;;;;;6.77;4.50;;;;;;;2.26;100.00;97817.97;5096426;27;101878;-60
2022/01/29 01:01:32;;;;;;;4.50;4.10;;;;;;;2.26;100.00;97823.22;5095748;27;103814;-60
2022/01/29 01:04:00;;;;;;;8.07;4.53;;;;;;;2.22;100.00;97824.50;5095627;27;105138;-60
2022/01/29 01:06:27;;;;;;;6.53;4.40;;;;;;;2.17;100.00;97819.78;5096364;27;101884;-59
2022/01/29 01:08:54;;;;;;;5.97;3.73;;;;;;;2.17;100.00;97808.44;5096280;27;104972;-60
2022/01/29 01:12:00;;;;;;;5.13;4.10;;;;;;;2.19;100.00;97806.50;5114418;27;101725;-60
2022/01/29 01:14:27;;;;;;;7.87;4.47;;;;;;;2.04;100.00;97803.69;5096034;27;101970;-60
2022/01/29 01:16:54;;;;;;;7.50;4.17;;;;;;;2.03;100.00;97809.91;5099025;27;105286;-60
2022/01/29 01:20:06;;;;;;;7.33;4.47;;;;;;;2.08;100.00;97810.25;5096240;27;101960;-60
2022/01/29 01:22:34;;;;;;;6.90;4.40;;;;;;;2.23;100.00;97803.38;5095309;27;105216;-60
2022/01/29 01:25:01;;;;;;;6.73;4.17;;;;;;;2.31;100.00;97799.91;5095006;27;105658;-60
2022/01/29 01:27:29;;;;;;;5.30;3.73;;;;;;;2.24;100.00;97796.31;5096026;27;101954;-60
2022/01/29 01:29:56;;;;;;;4.50;4.00;;;;;;;2.22;100.00;97780.75;5095947;27;105453;-60
2022/01/29 01:32:24;;;;;;;5.97;4.43;;;;;;;2.23;100.00;97771.03;5095165;27;105287;-60
2022/01/29 01:34:54;;;;;;;7.10;4.30;;;;;;;2.21;100.00;97770.41;5095761;27;101931;-60
2022/01/29 01:37:33;;;;;;;6.07;4.33;;;;;;;2.16;100.00;97754.31;5095578;27;105172;-60
2022/01/29 01:40:02;;;;;;;5.80;4.20;;;;;;;2.11;100.00;97746.13;5098635;27;105663;-60
2022/01/29 01:42:48;;;;;;;6.43;4.63;;;;;;;1.89;100.00;97734.50;5095547;27;105592;-60
2022/01/29 01:45:16;;;;;;;8.90;4.50;;;;;;;1.91;100.00;97731.72;5094810;27;105944;-60
2022/01/29 01:47:52;;;;;;;6.97;4.70;;;;;;;1.84;100.00;97723.69;5095567;27;101930;-60
2022/01/29 01:50:20;;;;;;;5.13;4.57;;;;;;;1.82;100.00;97709.09;5095661;27;104126;-60
2022/01/29 01:52:47;;;;;;;7.03;4.93;;;;;;;1.59;100.00;97700.22;5095007;27;104172;-60
2022/01/29 01:55:16;;;;;;;6.23;4.63;;;;;;;1.61;100.00;97687.78;5095244;27;101863;-60
2022/01/29 02:01:10;;;;;;;6.93;5.17;;;;;;;1.47;100.00;97684.00;5090977;27;105459;-60
2022/01/29 02:03:36;;;;;;;10.73;5.83;;;;;;;1.41;100.00;97683.81;5095624;27;101897;-60
2022/01/29 02:06:04;;;;;;;5.87;5.23;;;;;;;1.44;100.00;97676.47;5091255;27;105601;-60
2022/01/29 02:08:31;;;;;;;6.50;5.40;;;;;;;1.40;100.00;97676.94;5093194;27;101819;-60
2022/01/29 02:11:38;;;;;;;8.23;5.27;;;;;;;1.47;100.00;97672.69;5091917;27;105543;-60
2022/01/29 02:14:05;;;;;;;7.93;6.07;;;;;;;1.39;100.00;97685.78;5091411;27;104325;-60
2022/01/29 02:16:32;;;;;;;7.20;5.83;;;;;;;1.38;100.00;97674.47;5091791;27;101905;-60
2022/01/29 02:19:23;;;;;;;8.10;5.43;;;;;;;1.36;100.00;97678.22;5092934;27;102406;-60
2022/01/29 02:21:51;;;;;;;8.43;5.87;;;;;;;1.39;100.00;97677.94;5091209;27;105433;-60
2022/01/29 02:24:20;;;;;;;10.23;5.53;;;;;;;1.42;100.00;97661.88;5094960;27;101918;-60
2022/01/29 02:26:47;;;;;;;7.43;5.67;;;;;;;1.38;100.00;97661.38;5090777;27;105777;-60
2022/01/29 02:29:16;;;;;;;7.70;5.30;;;;;;;1.46;100.00;97663.19;5091582;27;101837;-60
2022/01/29 02:31:48;;;;;;;8.73;5.93;;;;;;;1.39;100.00;97670.06;5091532;27;105033;-60
2022/01/29 02:34:16;;;;;;;12.10;6.40;;;;;;;1.41;100.00;97673.31;5090885;27;105027;-60
2022/01/29 02:36:44;;;;;;;7.83;6.10;;;;;;;1.21;100.00;97669.38;5091582;27;101893;-60
2022/01/29 02:39:24;;;;;;;7.90;5.73;;;;;;;1.16;100.00;97663.81;5091387;27;105075;-60
2022/01/29 02:42:17;;;;;;;7.23;5.87;;;;;;;1.16;100.00;97669.06;5090735;27;106161;-60
2022/01/29 02:44:44;;;;;;;7.67;6.10;;;;;;;1.17;100.00;97654.97;5091100;27;101715;-60
2022/01/29 02:47:26;;;;;;;7.33;5.40;;;;;;;1.20;100.00;97658.06;5093946;27;105672;-60
2022/01/29 02:49:53;;;;;;;7.03;5.43;;;;;;;1.17;100.00;97654.97;5092801;27;101637;-60
2022/01/29 02:52:20;;;;;;;8.63;5.80;;;;;;;1.18;100.00;97653.97;5091220;27;104307;-60
2022/01/29 02:54:51;;;;;;;6.97;5.13;;;;;;;1.28;100.00;97647.63;5090436;27;104415;-60
2022/01/29 02:57:18;;;;;;;6.80;5.37;;;;;;;1.19;100.00;97634.66;5091010;27;101781;-60
2022/01/29 02:59:45;;;;;;;7.23;5.20;;;;;;;1.25;100.00;97620.91;5090614;27;105304;-60
2022/01/29 03:02:12;;;;;;;6.03;5.30;;;;;;;1.24;100.00;97624.50;5089752;27;105192;-60
2022/01/29 03:04:39;;;;;;;5.40;4.83;;;;;;;1.24;100.00;97621.88;5091221;27;101859;-60
2022/01/29 03:07:08;;;;;;;6.87;5.43;;;;;;;1.27;100.00;97626.81;5091857;27;101840;-60
2022/01/29 03:09:36;;;;;;;8.00;5.80;;;;;;;1.09;100.00;97647.91;5093692;27;105640;-60
2022/01/29 03:12:40;;;;;;;6.77;6.00;;;;;;;1.23;100.00;97626.31;5090875;27;105364;-60
2022/01/29 03:15:08;;;;;;;6.67;5.30;;;;;;;1.17;100.00;97626.16;5090371;27;105328;-60
2022/01/29 03:17:34;;;;;;;6.67;5.40;;;;;;;1.18;100.00;97633.03;5090852;27;101871;-60
2022/01/29 03:20:02;;;;;;;6.50;5.40;;;;;;;1.12;100.00;97626.66;5090761;27;106059;-60
2022/01/29 03:22:29;;;;;;;6.07;5.37;;;;;;;1.12;100.00;97629.25;5090001;27;105705;-60
2022/01/29 03:24:56;;;;;;;7.57;5.43;;;;;;;1.18;100.00;97617.31;5090582;27;101888;-60
2022/01/29 03:27:23;;;;;;;9.77;5.77;;;;;;;1.12;100.00;97631.06;5092212;27;102564;-59
2022/01/29 03:29:51;;;;;;;7.40;5.77;;;;;;;1.17;100.00;97634.00;5090172;27;104014;-59
2022/01/29 03:32:18;;;;;;;6.73;5.87;;;;;;;1.20;100.00;97638.94;5095376;27;101806;-60
2022/01/29 03:34:45;;;;;;;8.53;6.03;;;;;;;1.15;100.00;97638.59;5090001;27;105064;-60
2022/01/29 03:37:11;;;;;;;6.80;5.60;;;;;;;1.09;100.00;97634.00;5090368;27;101968;-60
2022/01/29 03:39:41;;;;;;;6.93;6.23;;;;;;;1.13;100.00;97643.16;5090519;27;104119;-60
2022/01/29 03:45:32;;;;;;;7.00;5.90;;;;;;;0.96;100.00;97636.25;5090269;27;101905;-60
2022/01/29 03:48:00;;;;;;;7.10;6.03;;;;;;;0.96;100.00;97636.25;5094081;27;104803;-59
2022/01/29 03:50:27;;;;;;;8.17;5.73;;;;;;;0.97;100.00;97632.66;5093630;27;103863;-59
2022/01/29 03:52:54;;;;;;;6.40;5.80;;;;;;;0.99;100.00;97635.94;5095351;27;101774;-60
2022/01/29 03:55:22;;;;;;;8.23;6.00;;;;;;;0.99;100.00;97638.56;5096847;27;103714;-60
2022/01/29 03:57:49;;;;;;;7.90;5.77;;;;;;;1.04;100.00;97633.66;5094010;27;101847;-60
2022/01/29 04:00:17;;;;;;;7.00;5.17;;;;;;;0.97;100.00;97635.28;5094129;27;103741;-59
2022/01/29 04:02:45;;;;;;;5.60;4.77;;;;;;;1.03;100.00;97629.38;5093234;27;105559;-60
2022/01/29 04:05:12;;;;;;;6.97;4.87;;;;;;;1.12;100.00;97625.81;5095092;27;101793;-60
2022/01/29 04:07:45;;;;;;;6.47;4.70;;;;;;;1.15;100.00;97630.75;5095209;27;102495;-60
2022/01/29 04:10:13;;;;;;;6.97;4.27;;;;;;;1.17;100.00;97634.00;5094376;27;104211;-60
2022/01/29 04:12:52;;;;;;;6.60;4.67;;;;;;;1.13;100.00;97628.28;5093877;27;101850;-60
2022/01/29 04:15:19;;;;;;;4.87;4.10;;;;;;;1.12;100.00;97633.66;5093818;27;104849;-60
2022/01/29 04:17:48;;;;;;;6.97;4.20;;;;;;;1.04;100.00;97620.56;5096457;27;105751;-60
2022/01/29 04:20:16;;;;;;;6.83;4.23;;;;;;;1.01;100.00;97623.50;5093754;27;102828;-60
2022/01/29 04:22:43;;;;;;;4.70;4.20;;;;;;;1.07;100.00;97602.72;5093009;27;105805;-60
2022/01/29 04:25:10;;;;;;;7.27;4.83;;;;;;;1.04;100.00;97603.03;5093411;27;101947;-60
2022/01/29 04:27:53;;;;;;;5.73;4.30;;;;;;;1.07;100.00;97600.13;5093490;27;105222;-60
2022/01/29 04:30:28;;;;;;;4.73;3.90;;;;;;;0.98;100.00;97595.84;5093019;27;103963;-60
2022/01/29 04:33:01;;;;;;;4.70;4.17;;;;;;;1.09;100.00;97586.84;5093487;27;101790;-60
2022/01/29 04:35:28;;;;;;;5.33;4.23;;;;;;;0.99;100.00;97592.22;5094975;27;102541;-60
2022/01/29 04:38:10;;;;;;;7.23;4.40;;;;;;;0.89;100.00;97593.38;5096090;27;103704;-60
2022/01/29 04:40:37;;;;;;;4.87;4.33;;;;;;;0.84;100.00;97591.25;5093314;27;105712;-60
2022/01/29 04:43:08;;;;;;;5.33;4.37;;;;;;;0.79;100.00;97593.53;5092626;27;106661;-60
2022/01/29 04:45:36;;;;;;;5.60;4.77;;;;;;;0.80;100.00;97589.09;5093142;27;101737;-60
2022/01/29 04:48:24;;;;;;;6.97;5.07;;;;;;;0.78;100.00;97586.63;5094423;27;101755;-60
2022/01/29 04:50:52;;;;;;;6.60;5.37;;;;;;;0.78;100.00;97575.34;5092588;27;105123;-60
2022/01/29 04:53:20;;;;;;;7.67;5.80;;;;;;;0.77;100.00;97576.34;5093200;27;102048;-60
2022/01/29 04:55:47;;;;;;;5.07;4.30;;;;;;;0.77;100.00;97574.53;5092886;27;105312;-64
2022/01/29 04:58:25;;;;;;;4.73;4.17;;;;;;;0.80;100.00;97566.34;5091202;27;105107;-58
2022/01/29 05:00:52;;;;;;;7.57;4.20;;;;;;;0.78;100.00;97552.59;5099372;27;101775;-58
2022/01/29 05:03:19;;;;;;;7.23;3.97;;;;;;;0.79;100.00;97558.66;5095818;27;105092;-56
2022/01/29 05:05:49;;;;;;;7.37;4.67;;;;;;;0.77;100.00;97558.81;5096169;27;101920;-58
2022/01/29 05:08:20;;;;;;;4.40;3.90;;;;;;;0.78;100.00;97543.94;5096119;27;104046;-58
2022/01/29 05:10:47;;;;;;;5.20;4.07;;;;;;;0.82;100.00;97566.19;5114500;27;102790;-58
2022/01/29 05:13:18;;;;;;;4.70;3.77;;;;;;;0.86;100.00;97546.56;5096185;27;101987;-58
2022/01/29 05:15:58;;;;;;;5.33;3.77;;;;;;;0.90;100.00;97551.31;5115093;27;102491;-58
2022/01/29 05:26:53;;;;;;;4.20;3.53;;;;;;;1.02;100.00;97547.41;5058112;27;102143;-58
2022/01/29 05:29:29;;;;;;;5.50;3.90;;;;;;;1.08;100.00;97530.19;5096036;27;103640;-58
2022/01/29 05:31:56;;;;;;;5.90;3.63;;;;;;;0.92;100.00;97549.34;5078309;27;106775;-57
2022/01/29 05:34:24;;;;;;;4.30;3.57;;;;;;;0.82;100.00;97540.03;5114355;27;101952;-57
2022/01/29 05:36:53;;;;;;;3.70;3.30;;;;;;;0.89;100.00;97546.25;5095398;27;104909;-57
2022/01/29 05:39:21;;;;;;;4.23;3.37;;;;;;;0.94;100.00;97543.97;5095273;27;105579;-58
2022/01/29 05:41:54;;;;;;;5.43;3.77;;;;;;;0.87;100.00;97549.00;5095728;27;101937;-59
2022/01/29 05:44:22;;;;;;;4.63;3.70;;;;;;;0.94;100.00;97543.97;5095510;27;104854;-58
2022/01/29 05:46:49;;;;;;;5.90;3.60;;;;;;;0.95;100.00;97540.34;5098341;27;104178;-58
2022/01/29 05:49:21;;;;;;;3.47;3.00;;;;;;;0.90;100.00;97548.69;5114409;27;102486;-58
2022/01/29 05:51:49;;;;;;;4.83;3.30;;;;;;;1.02;100.00;97551.81;5113594;27;105918;-58
2022/01/29 05:54:17;;;;;;;5.27;4.30;;;;;;;1.05;100.00;97541.81;5095532;27;101865;-58
2022/01/29 05:56:45;;;;;;;6.87;5.70;;;;;;;1.07;100.00;97544.28;5095418;27;105606;-58
2022/01/29 05:59:13;;;;;;;6.83;4.27;;;;;;;1.05;100.00;97541.81;5113436;27;102608;-58
2022/01/29 06:01:40;;;;;;;3.80;3.40;;;;;;;1.02;100.00;97557.03;5112485;27;101816;-58
2022/01/29 06:04:07;;;;;;;4.77;3.07;;;;;;;1.06;100.00;97542.66;5114167;27;102837;-58
2022/01/29 06:06:34;;;;;;;4.47;3.70;;;;;;;1.08;100.00;97546.75;5113514;27;102617;-59
2022/01/29 06:09:17;;;;;;;4.03;3.53;;;;;;;0.99;100.00;97544.28;5117041;27;101828;-57
2022/01/29 06:11:44;;;;;;;3.67;2.70;;;;;;;1.10;100.00;97539.53;5113509;27;102505;-58
2022/01/29 06:14:12;;;;;;;4.37;3.10;;;;;;;1.10;100.00;97541.34;5095197;27;101866;-57
2022/01/29 06:16:39;;;;;;;3.00;2.70;;;;;;;1.07;100.00;97532.00;5114043;27;102796;-58
2022/01/29 06:19:19;;;;;;;3.43;2.67;;;;;;;1.05;100.00;97528.72;5113245;27;101702;-58
2022/01/29 06:21:46;;;;;;;3.10;2.90;;;;;;;1.03;100.00;97528.06;5114272;27;102107;-58
2022/01/29 06:24:13;;;;;;;3.90;3.30;;;;;;;0.93;100.00;97550.97;5113637;27;102315;-58
2022/01/29 06:26:41;;;;;;;5.77;3.30;;;;;;;1.03;100.00;97541.16;5094313;27;105410;-57
2022/01/29 06:29:13;;;;;;;4.90;3.30;;;;;;;1.04;100.00;97552.47;5113677;27;101856;-58
2022/01/29 06:31:41;;;;;;;4.87;3.23;;;;;;;1.01;100.00;97551.00;5097885;27;106710;-58
2022/01/29 06:34:07;;;;;;;4.27;3.40;;;;;;;0.95;100.00;97548.22;5113676;27;101801;-58
2022/01/29 06:36:34;;;;;;;4.87;3.67;;;;;;;0.90;100.00;97538.22;5113135;27;102932;-58
2022/01/29 06:39:08;;;;;;;5.13;4.30;;;;;;;0.87;100.00;97541.16;5112969;27;102631;-57
2022/01/29 06:41:35;;;;;;;5.80;4.60;;;;;;;0.84;100.00;97533.66;5095087;27;101890;-58
2022/01/29 06:44:03;;;;;;;4.67;3.93;;;;;;;0.82;100.00;97530.34;5113517;27;102679;-58
2022/01/29 06:46:30;;;;;;;4.57;4.17;;;;;;;0.81;100.00;97533.13;5093974;27;103680;-57
2022/01/29 06:52:20;;;;;;;4.53;4.07;;;;;;;0.77;100.00;97539.69;5097476;27;105255;-57
2022/01/29 06:54:47;;;;;;;4.20;3.80;;;;;;;0.78;100.00;97538.69;5094422;27;101877;-57
2022/01/29 06:57:14;;;;;;;4.83;4.10;;;;;;;0.87;100.00;97548.19;5094517;27;104827;-57
2022/01/29 07:00:02;;;;;;;4.77;4.03;;;;;;;0.93;100.00;97550.19;5093813;27;105370;-55
2022/01/29 07:02:29;;;;;;;4.70;4.30;;;;;;;0.98;100.00;97546.06;5094418;27;101744;-57
2022/01/29 07:04:56;;;;;;;7.30;3.57;;;;;;;1.04;100.00;97539.38;5094445;27;105327;-56
2022/01/29 07:07:23;;;;;;;4.87;3.30;;;;;;;1.10;100.00;97539.53;5093863;27;104151;-56
2022/01/29 07:09:50;;;;;;;3.83;3.40;;;;;;;1.18;100.00;97533.47;5094492;27;101940;-56
2022/01/29 07:15:42;;;;;;;4.90;4.40;;;;;;;1.21;100.00;97535.78;5097280;27;105762;-58
2022/01/29 07:18:12;;;;;;;4.07;3.77;;;;;;;1.31;100.00;97528.56;5094296;27;104968;-58
2022/01/29 07:20:39;;;;;;;4.70;4.10;;;;;;;1.24;100.00;97531.03;5092788;27;105612;-58
2022/01/29 07:23:07;;;;;;;5.23;4.33;;;;;;;1.27;100.00;97529.88;5094367;27;102150;-58
2022/01/29 07:25:35;;;;;;;6.23;4.30;;;;;;;1.32;100.00;97525.75;5093881;27;104109;-58
2022/01/29 07:28:04;;;;;;;6.70;5.10;;;;;;;1.36;100.00;97521.84;5093223;27;106463;-58
2022/01/29 07:30:31;;;;;;;5.77;5.00;;;;;;;1.47;100.00;97520.66;5094055;27;101868;-58
2022/01/29 07:33:00;;;;;;;6.13;4.80;;;;;;;1.54;100.00;97517.22;5093850;27;104765;-58
2022/01/29 07:35:27;;;;;;;6.00;4.27;;;;;;;1.49;100.00;97523.94;5093270;27;105378;-58
2022/01/29 07:38:02;;;;;;;5.10;3.87;;;;;;;1.57;100.00;97516.88;5115974;27;101884;-58
2022/01/29 07:40:29;;;;;;;4.70;4.20;;;;;;;1.64;100.00;97512.59;5093591;27;105471;-58
2022/01/29 07:42:55;;;;;;;5.77;4.60;;;;;;;1.62;100.00;97521.63;5093930;27;101858;-58
2022/01/29 07:45:22;;;;;;;4.23;3.57;;;;;;;1.71;100.00;97510.94;5093949;27;104823;-58
2022/01/29 07:47:50;;;;;;;3.80;3.47;;;;;;;1.83;100.00;97501.75;5092978;27;105348;-58
2022/01/29 07:50:19;;;;;;;3.23;2.93;;;;;;;1.92;100.00;97499.91;5093632;27;101968;-58
2022/01/29 07:52:46;;;;;;;4.23;3.47;;;;;;;2.08;100.00;97499.84;5093867;27;105184;-58
2022/01/29 07:55:13;;;;;;;5.50;4.33;;;;;;;2.10;100.00;97508.34;5092922;27;105171;-58
2022/01/29 07:57:41;;;;;;;5.27;4.17;;;;;;;2.15;100.00;97511.28;5093875;27;101858;-58
2022/01/29 08:00:09;;;;;;;5.70;4.17;;;;;;;2.17;100.00;97502.25;5096610;27;103645;-58
2022/01/29 08:02:45;;;;;;;6.50;5.57;;;;;;;2.17;100.00;97506.69;5112232;27;101770;-59
2022/01/29 08:05:12;;;;;;;10.00;6.27;;;;;;;2.13;100.00;97500.97;5112332;27;104048;-58
2022/01/29 08:07:47;;;;;;;7.70;5.53;;;;;;;2.09;100.00;97506.72;5092911;27;104233;-58
2022/01/29 08:10:14;;;;;;;5.53;4.40;;;;;;;2.20;100.00;97499.28;5093958;27;102152;-58
2022/01/29 08:16:05;;;;;;;4.20;3.20;;;;;;;2.46;100.00;97501.63;5092794;27;106103;-58
2022/01/29 08:18:33;;;;;;;4.77;3.70;;;;;;;2.53;100.00;97492.06;5093513;27;101910;-58
2022/01/29 08:21:00;;;;;;;11.57;8.23;;;;;;;2.44;100.00;97495.72;5093392;27;105443;-58
2022/01/29 08:23:29;;;;;;;5.60;4.97;;;;;;;2.68;100.00;97490.31;5096324;27;105276;-58
2022/01/29 08:25:56;;;;;;;4.60;3.80;;;;;;;2.64;100.00;97486.41;5093520;27;105445;-58
2022/01/29 08:28:24;;;;;;;4.73;3.77;;;;;;;2.70;100.00;97485.72;5092266;27;105310;-59
2022/01/29 08:30:51;;;;;;;4.10;3.70;;;;;;;2.84;100.00;97477.09;5111912;27;101907;-59
2022/01/29 08:33:19;;;;;;;3.50;2.90;;;;;;;2.72;100.00;97473.22;5095786;27;104030;-58
2022/01/29 08:35:46;;;;;;;3.20;2.90;;;;;;;2.73;100.00;97470.41;5095992;27;106348;-59
2022/01/29 08:38:16;;;;;;;3.77;3.30;;;;;;;2.80;100.00;97463.44;5096892;27;101812;-58
2022/01/29 08:40:45;;;;;;;3.17;2.80;;;;;;;2.72;100.00;97453.03;5096785;27;104939;-59
2022/01/29 08:43:17;;;;;;;2.63;2.43;;;;;;;2.79;100.00;97447.91;5095903;27;105885;-58
2022/01/29 08:45:44;;;;;;;3.37;2.47;;;;;;;2.78;100.00;97451.53;5100176;27;101712;-59
2022/01/29 08:48:16;;;;;;;4.30;2.60;;;;;;;2.88;100.00;97441.56;5095838;27;105045;-58
2022/01/29 08:50:43;;;;;;;2.80;2.50;;;;;;;2.85;100.00;97447.19;5096688;27;101956;-58
2022/01/29 08:53:10;;;;;;;4.10;2.77;;;;;;;2.85;100.00;97447.19;5096718;27;104790;-58
2022/01/29 08:55:38;;;;;;;3.23;2.50;;;;;;;2.93;100.00;97433.97;5095953;27;105065;-59
2022/01/29 08:58:09;;;;;;;3.57;2.40;;;;;;;2.90;100.00;97416.75;5096276;27;101913;-58
2022/01/29 09:00:38;;;;;;;2.70;2.50;;;;;;;2.87;100.00;97421.56;5096067;27;105232;-56
2022/01/29 09:03:06;;;;;;;4.33;2.67;;;;;;;3.00;100.00;97433.09;5114707;27;103163;-57
2022/01/29 09:05:34;;;;;;;4.77;2.37;;;;;;;3.04;100.00;97434.38;5099708;27;101850;-57
2022/01/29 09:08:09;;;;;;;2.80;2.60;;;;;;;3.14;100.00;97431.47;5095614;27;105980;-56
2022/01/29 09:10:37;;;;;;;2.63;2.43;;;;;;;3.12;100.00;97433.50;5096227;27;101671;-57
2022/01/29 09:13:43;;;;;;;2.90;2.60;;;;;;;3.14;100.00;97442.00;5096213;27;104927;-57
2022/01/29 09:16:09;;;;;;;7.90;3.50;;;;;;;3.21;100.00;97433.22;5095561;27;105067;-57
2022/01/29 09:18:37;;;;;;;4.67;3.10;;;;;;;3.22;100.00;97437.47;5096005;27;102039;-56
2022/01/29 09:21:05;;;;;;;3.13;2.80;;;;;;;3.25;100.00;97426.63;5095858;27;104993;-56
2022/01/29 09:23:32;;;;;;;5.27;3.10;;;;;;;3.29;100.00;97435.75;5095102;27;105842;-56
2022/01/29 09:26:01;;;;;;;5.57;2.80;;;;;;;3.32;100.00;97430.16;5095924;27;101918;-57
2022/01/29 09:28:50;;;;;;;6.07;2.67;;;;;;;3.46;100.00;97428.53;5098706;27;105339;-56
2022/01/29 09:31:17;;;;;;;5.17;3.00;;;;;;;3.57;100.00;97433.34;5096262;27;102168;-57
2022/01/29 09:33:44;;;;;;;4.60;2.93;;;;;;;3.54;100.00;97424.00;5095787;27;104950;-56
2022/01/29 09:36:11;;;;;;;4.67;3.50;;;;;;;3.64;100.00;97434.25;5095021;27;105380;-56
2022/01/29 09:38:38;;;;;;;6.40;3.00;;;;;;;3.69;100.00;97442.41;5095957;27;101951;-56
2022/01/29 09:41:05;;;;;;;4.57;3.10;;;;;;;3.71;100.00;97437.78;5095796;27;104783;-56
2022/01/29 09:43:34;;;;;;;4.80;3.20;;;;;;;3.72;100.00;97432.31;5094505;27;105596;-57
2022/01/29 09:46:03;;;;;;;6.17;3.53;;;;;;;3.72;100.00;97431.53;5114229;27;101795;-56
2022/01/29 09:48:30;;;;;;;3.87;2.90;;;;;;;3.73;100.00;97423.47;5114310;27;102617;-57
2022/01/29 09:50:59;;;;;;;6.53;3.20;;;;;;;3.76;100.00;97433.59;5098513;27;106117;-57
2022/01/29 09:53:26;;;;;;;5.43;2.70;;;;;;;3.75;100.00;97426.72;5095471;27;103703;-57
2022/01/29 09:55:54;;;;;;;3.23;2.20;;;;;;;3.78;100.00;97441.31;5095172;27;105259;-57
2022/01/29 09:58:28;;;;;;;5.93;2.27;;;;;;;3.82;100.00;97432.06;5095600;27;101902;-55
2022/01/29 10:00:55;;;;;;;2.50;2.30;;;;;;;3.84;100.00;97428.25;5114040;27;102827;-56
2022/01/29 10:03:23;;;;;;;2.60;2.20;;;;;;;3.95;100.00;97437.50;5095017;27;105806;-56
2022/01/29 10:05:53;;;;;;;3.43;2.50;;;;;;;3.94;100.00;97430.59;5095348;27;102009;-57
2022/01/29 10:08:26;;;;;;;2.80;2.40;;;;;;;3.91;100.00;97423.88;5114042;27;102572;-56
2022/01/29 10:10:55;;;;;;;3.47;2.40;;;;;;;3.92;100.00;97416.78;5094663;27;105276;-55
2022/01/29 10:13:29;;;;;;;2.43;2.10;;;;;;;3.89;100.00;97423.28;5098758;27;101902;-56
2022/01/29 10:16:11;;;;;;;2.73;2.20;;;;;;;3.94;100.00;97435.88;5094498;27;105495;-57
2022/01/29 10:19:04;;;;;;;2.37;2.17;;;;;;;3.92;100.00;97437.84;5114018;27;101766;-57
2022/01/29 10:21:34;;;;;;;4.23;2.37;;;;;;;3.93;100.00;97434.25;5095345;27;105362;-57
2022/01/29 10:24:04;;;;;;;2.23;2.10;;;;;;;3.97;100.00;97430.22;5094423;27;104334;-56
2022/01/29 10:26:33;;;;;;;2.63;2.43;;;;;;;3.99;100.00;97434.28;5113965;27;101882;-55
2022/01/29 10:29:54;;;;;;;3.40;2.90;;;;;;;4.09;100.00;97428.78;5113821;27;102835;-56
2022/01/29 10:32:25;;;;;;;3.50;2.73;;;;;;;4.13;100.00;97436.09;5113274;27;103206;-56
2022/01/29 10:34:56;;;;;;;5.13;2.50;;;;;;;4.19;100.00;97424.00;5094977;27;101799;-56
2022/01/29 10:37:25;;;;;;;3.40;2.40;;;;;;;4.24;100.00;97419.81;5097555;27;104416;-57
2022/01/29 10:39:55;;;;;;;5.23;3.20;;;;;;;4.27;100.00;97413.38;5094816;27;101985;-56
2022/01/29 10:42:54;;;;;;;4.80;3.50;;;;;;;4.27;100.00;97414.16;5113420;27;102358;-56
2022/01/29 10:45:33;;;;;;;5.20;3.10;;;;;;;4.32;100.00;97409.16;5094086;27;103955;-56
2022/01/29 10:48:06;;;;;;;2.97;2.30;;;;;;;4.29;100.00;97409.56;5094634;27;102046;-56
2022/01/29 10:50:35;;;;;;;3.67;2.10;;;;;;;4.31;100.00;97406.75;5113495;27;102792;-56
2022/01/29 10:53:24;;;;;;;3.47;2.23;;;;;;;4.33;100.00;97404.72;5094161;27;105042;-56
2022/01/29 10:56:01;;;;;;;5.03;2.47;;;;;;;4.46;100.00;97404.84;5093189;27;101939;-56
2022/01/29 10:58:41;;;;;;;2.73;2.30;;;;;;;4.53;100.00;97387.31;5113243;27;102447;-56
2022/01/29 11:01:12;;;;;;;5.03;2.37;;;;;;;4.57;100.00;97384.09;5096815;27;102115;-57
2022/01/29 11:03:39;;;;;;;4.30;3.07;;;;;;;4.62;100.00;97387.00;5113298;27;102373;-56
2022/01/29 11:06:09;;;;;;;4.87;2.67;;;;;;;4.61;100.00;97376.63;5112532;27;102634;-56
2022/01/29 11:08:39;;;;;;;3.37;2.67;;;;;;;4.68;100.00;97375.69;5094161;27;101824;-56
2022/01/29 11:11:06;;;;;;;13.90;6.87;;;;;;;4.83;100.00;97370.34;5094365;27;105624;-56
2022/01/29 11:13:36;;;;;;;6.83;3.37;;;;;;;4.88;100.00;97370.59;5093437;27;105369;-56
2022/01/29 11:16:06;;;;;;;4.43;2.83;;;;;;;4.93;100.00;97368.19;5094470;27;101743;-56
2022/01/29 11:18:57;;;;;;;5.33;3.10;;;;;;;5.03;100.00;97366.03;5112846;27;102797;-56
2022/01/29 11:21:26;;;;;;;6.27;3.13;;;;;;;5.08;100.00;97368.91;5097268;27;105398;-56
2022/01/29 11:23:55;;;;;;;2.93;2.20;;;;;;;5.09;100.00;97367.91;5094112;27;105864;-57
2022/01/29 11:26:22;;;;;;;2.77;2.10;;;;;;;5.15;100.00;97370.59;5093613;27;106071;-59
2022/01/29 11:29:28;;;;;;;2.60;2.30;;;;;;;5.20;100.00;97356.81;5094059;27;101708;-58
2022/01/29 11:32:38;;;;;;;5.40;2.50;;;;;;;5.18;100.00;97358.84;5041831;27;105296;-58
2022/01/29 11:35:19;;;;;;;5.17;2.73;;;;;;;5.19;100.00;97356.00;5093594;27;104724;-58
2022/01/29 11:37:58;;;;;;;6.40;2.53;;;;;;;5.22;100.00;97353.00;5093645;27;101827;-58
2022/01/29 11:40:31;;;;;;;2.73;2.40;;;;;;;5.36;100.00;97354.69;5093985;27;105431;-58
2022/01/29 11:43:09;;;;;;;4.27;2.27;;;;;;;5.34;100.00;97345.38;5093289;27;105311;-58
2022/01/29 11:45:41;;;;;;;5.47;2.83;;;;;;;5.43;100.00;97337.09;5097436;27;101845;-58
2022/01/29 11:48:25;;;;;;;5.50;3.50;;;;;;;5.57;100.00;97343.25;5093026;27;105160;-57
2022/01/29 11:50:54;;;;;;;5.30;2.40;;;;;;;5.58;100.00;97337.78;5093253;27;101877;-59
2022/01/29 11:53:23;;;;;;;3.33;2.20;;;;;;;5.70;100.00;97338.03;5112272;27;102511;-58
2022/01/29 11:55:52;;;;;;;6.53;2.77;;;;;;;5.79;100.00;97332.38;5093296;27;104371;-58
2022/01/29 11:59:04;;;;;;;3.33;2.50;;;;;;;5.82;100.00;97315.34;5093757;27;102090;-58
2022/01/29 12:01:32;;;;;;;3.50;2.10;;;;;;;6.02;94.09;97317.06;5093356;27;105593;-58
2022/01/29 12:03:58;;;;;;;7.50;2.50;;;;;;;6.11;92.80;97315.06;5093138;27;105437;-59
2022/01/29 12:06:30;;;;;;;3.43;2.30;;;;;;;6.18;85.52;97323.78;5112306;27;101796;-59
2022/01/29 12:09:21;;;;;;;3.43;2.57;;;;;;;6.30;88.11;97306.34;5099886;27;104987;-59